createdAt,value
2023-03-16T00:00:12.043Z,2.80
2023-03-16T00:02:38.454Z,2.60
2023-03-16T00:05:04.884Z,2.60
2023-03-16T00:07:31.375Z,2.88
2023-03-16T00:09:57.801Z,3.13
2023-03-16T00:12:24.265Z,2.75
2023-03-16T00:14:50.668Z,2.75
2023-03-16T00:17:17.124Z,2.80
2023-03-16T00:19:43.554Z,3.00
2023-03-16T00:22:09.984Z,2.40
2023-03-16T00:24:36.358Z,2.05
2023-03-16T00:27:02.797Z,2.38
2023-03-16T00:29:29.250Z,2.40
2023-03-16T00:31:55.724Z,2.50
2023-03-16T00:34:22.176Z,2.20
2023-03-16T00:36:48.604Z,2.20
2023-03-16T00:39:15.070Z,2.63
2023-03-16T00:41:41.505Z,1.88
2023-03-16T00:44:07.906Z,2.58
2023-03-16T00:46:34.334Z,2.30
2023-03-16T00:49:00.757Z,2.47
2023-03-16T00:51:27.197Z,2.40
2023-03-16T00:53:53.575Z,2.50
2023-03-16T00:56:20.040Z,2.20
2023-03-16T00:58:46.451Z,2.33
2023-03-16T01:01:12.978Z,2.30
2023-03-16T01:03:39.461Z,2.45
2023-03-16T01:06:05.905Z,2.28
2023-03-16T01:08:32.334Z,2.90
2023-03-16T01:10:58.738Z,2.50
2023-03-16T01:13:25.215Z,2.38
2023-03-16T01:15:51.680Z,2.60
2023-03-16T01:18:18.136Z,2.70
2023-03-16T01:20:44.576Z,3.13
2023-03-16T01:23:11.016Z,2.92
2023-03-16T01:25:37.564Z,3.00
2023-03-16T01:28:04.059Z,3.00
2023-03-16T01:30:30.468Z,2.75
2023-03-16T01:32:56.909Z,2.90
2023-03-16T01:35:23.512Z,3.30
2023-03-16T01:37:49.988Z,3.22
2023-03-16T01:40:16.437Z,3.35
2023-03-16T01:42:42.850Z,3.08
2023-03-16T01:45:09.294Z,2.67
2023-03-16T01:47:35.737Z,2.95
2023-03-16T01:50:02.164Z,3.00
2023-03-16T01:52:28.596Z,2.90
2023-03-16T01:54:55.030Z,3.03
2023-03-16T01:57:21.477Z,3.03
2023-03-16T01:59:47.870Z,2.72
2023-03-16T02:02:14.293Z,3.30
2023-03-16T02:04:40.997Z,3.17
2023-03-16T02:07:07.847Z,3.40
2023-03-16T02:09:34.224Z,3.78
2023-03-16T02:12:00.660Z,3.05
2023-03-16T02:14:27.049Z,3.63
2023-03-16T02:16:55.805Z,3.42
2023-03-16T02:19:22.180Z,3.25
2023-03-16T02:21:48.632Z,3.40
2023-03-16T02:24:15.022Z,2.78
2023-03-16T02:26:41.455Z,3.00
2023-03-16T02:29:07.933Z,3.67
2023-03-16T02:31:34.430Z,2.75
2023-03-16T02:34:00.918Z,2.60
2023-03-16T02:36:27.315Z,2.72
2023-03-16T02:38:53.691Z,2.72
2023-03-16T02:41:20.078Z,3.15
2023-03-16T02:43:46.505Z,2.70
2023-03-16T02:46:12.950Z,2.78
2023-03-16T02:48:39.395Z,2.85
2023-03-16T02:51:05.813Z,3.03
2023-03-16T02:53:32.253Z,3.72
2023-03-16T02:55:58.628Z,3.00
2023-03-16T02:58:25.012Z,2.65
2023-03-16T03:00:51.452Z,3.60
2023-03-16T03:03:17.990Z,3.00
2023-03-16T03:05:44.470Z,3.08
2023-03-16T03:08:11.017Z,2.80
2023-03-16T03:10:37.391Z,3.08
2023-03-16T03:13:03.861Z,3.00
2023-03-16T03:15:30.317Z,2.55
2023-03-16T03:17:56.774Z,3.28
2023-03-16T03:20:24.645Z,2.53
2023-03-16T03:22:51.074Z,2.60
2023-03-16T03:25:17.543Z,2.63
2023-03-16T03:27:44.032Z,2.50
2023-03-16T03:30:10.491Z,2.60
2023-03-16T03:32:36.980Z,2.42
2023-03-16T03:35:03.446Z,2.70
2023-03-16T03:37:29.914Z,2.78
2023-03-16T03:39:56.306Z,2.70
2023-03-16T03:42:22.737Z,2.70
2023-03-16T03:44:49.116Z,2.78
2023-03-16T03:47:15.521Z,2.60
2023-03-16T03:49:42.111Z,2.78
2023-03-16T03:52:08.505Z,2.55
2023-03-16T03:54:34.959Z,2.35
2023-03-16T03:57:01.345Z,2.53
2023-03-16T03:59:27.780Z,2.47
2023-03-16T04:01:54.207Z,2.17
2023-03-16T04:04:20.653Z,2.20
2023-03-16T04:06:47.040Z,2.33
2023-03-16T04:09:13.442Z,2.58
2023-03-16T04:11:39.835Z,2.40
2023-03-16T04:14:06.331Z,2.30
2023-03-16T04:16:32.812Z,2.42
2023-03-16T04:18:59.244Z,2.40
2023-03-16T04:21:25.645Z,2.30
2023-03-16T04:23:52.009Z,2.65
2023-03-16T04:26:18.436Z,2.30
2023-03-16T04:28:44.887Z,1.92
2023-03-16T04:31:11.460Z,2.28
2023-03-16T04:33:37.960Z,2.30
2023-03-16T04:36:04.392Z,2.30
2023-03-16T04:38:30.830Z,1.98
2023-03-16T04:40:57.242Z,2.20
2023-03-16T04:43:23.662Z,2.20
2023-03-16T04:45:50.110Z,2.10
2023-03-16T04:48:16.531Z,2.28
2023-03-16T04:50:42.916Z,2.08
2023-03-16T04:53:09.368Z,2.20
2023-03-16T04:55:35.760Z,2.50
2023-03-16T04:58:02.205Z,2.65
2023-03-16T05:00:28.877Z,2.45
2023-03-16T05:02:55.481Z,2.83
2023-03-16T05:05:21.976Z,2.42
2023-03-16T05:07:48.414Z,2.45
2023-03-16T05:10:14.823Z,2.90
2023-03-16T05:12:41.373Z,3.08
2023-03-16T05:15:07.762Z,2.40
2023-03-16T05:17:34.194Z,2.38
2023-03-16T05:20:00.665Z,2.25
2023-03-16T05:22:27.121Z,2.40
2023-03-16T05:24:53.591Z,2.38
2023-03-16T05:27:20.062Z,2.13
2023-03-16T05:29:46.509Z,2.30
2023-03-16T05:32:12.926Z,2.20
2023-03-16T05:34:39.286Z,1.95
2023-03-16T05:37:05.709Z,2.13
2023-03-16T05:39:32.109Z,2.63
2023-03-16T05:41:58.506Z,2.03
2023-03-16T05:44:25.132Z,2.13
2023-03-16T05:46:51.625Z,2.08
2023-03-16T05:49:18.096Z,1.95
2023-03-16T05:51:44.479Z,1.95
2023-03-16T05:54:10.845Z,2.22
2023-03-16T05:56:37.209Z,2.40
2023-03-16T05:59:03.638Z,2.20
2023-03-16T06:01:30.071Z,2.35
2023-03-16T06:03:56.516Z,2.47
2023-03-16T06:06:23.028Z,2.67
2023-03-16T06:08:49.476Z,2.40
2023-03-16T06:11:15.878Z,2.47
2023-03-16T06:13:42.290Z,2.20
2023-03-16T06:16:08.797Z,2.60
2023-03-16T06:18:35.276Z,2.85
2023-03-16T06:21:01.747Z,2.30
2023-03-16T06:23:28.145Z,2.40
2023-03-16T06:25:54.605Z,2.65
2023-03-16T06:28:20.980Z,2.72
2023-03-16T06:30:47.364Z,2.40
2023-03-16T06:33:13.802Z,2.60
2023-03-16T06:35:40.277Z,2.53
2023-03-16T06:38:06.753Z,3.00
2023-03-16T06:40:33.168Z,2.97
2023-03-16T06:42:59.569Z,3.25
2023-03-16T06:45:25.996Z,3.00
2023-03-16T06:47:52.733Z,3.00
2023-03-16T06:50:19.224Z,2.53
2023-03-16T06:52:45.709Z,3.17
2023-03-16T06:55:12.148Z,3.03
2023-03-16T06:57:38.724Z,3.10
2023-03-16T07:00:05.123Z,3.20
2023-03-16T07:02:31.600Z,2.53
2023-03-16T07:04:58.027Z,2.90
2023-03-16T07:07:24.479Z,2.90
2023-03-16T07:09:50.879Z,2.80
2023-03-16T07:12:17.319Z,3.13
2023-03-16T07:14:43.753Z,2.90
2023-03-16T07:17:10.212Z,3.10
2023-03-16T07:19:36.630Z,3.00
2023-03-16T07:22:03.011Z,3.25
2023-03-16T07:24:29.750Z,3.17
2023-03-16T07:26:56.173Z,3.13
2023-03-16T07:29:22.638Z,2.72
2023-03-16T07:31:49.180Z,2.70
2023-03-16T07:34:15.678Z,2.40
2023-03-16T07:36:42.099Z,2.85
2023-03-16T07:39:08.544Z,3.00
2023-03-16T07:41:34.934Z,2.75
2023-03-16T07:44:01.355Z,2.75
2023-03-16T07:46:27.869Z,2.75
2023-03-16T07:48:54.348Z,3.30
2023-03-16T07:51:20.735Z,3.20
2023-03-16T07:53:47.094Z,3.72
2023-03-16T07:56:13.552Z,3.05
2023-03-16T07:58:40.029Z,3.40
2023-03-16T08:01:06.492Z,3.17
2023-03-16T08:03:32.944Z,2.65
2023-03-16T08:05:59.392Z,3.78
2023-03-16T08:08:25.804Z,3.42
2023-03-16T08:10:52.187Z,3.20
2023-03-16T08:13:18.597Z,3.17
2023-03-16T08:15:45.029Z,3.92
2023-03-16T08:18:11.461Z,4.35
2023-03-16T08:20:38.189Z,3.70
2023-03-16T08:23:04.645Z,3.42
2023-03-16T08:25:31.082Z,3.60
2023-03-16T08:27:57.479Z,3.92
2023-03-16T08:30:23.939Z,3.33
2023-03-16T08:32:50.346Z,4.60
2023-03-16T08:35:16.894Z,3.42
2023-03-16T08:37:43.372Z,3.70
2023-03-16T08:40:09.849Z,4.40
2023-03-16T08:42:36.319Z,3.70
2023-03-16T08:45:02.744Z,3.83
2023-03-16T08:47:29.142Z,3.58
2023-03-16T08:49:55.546Z,3.85
2023-03-16T08:52:22.959Z,4.15
2023-03-16T08:55:01.865Z,4.20
2023-03-16T08:57:29.194Z,3.75
2023-03-16T08:59:55.574Z,4.03
2023-03-16T09:02:21.993Z,4.05
2023-03-16T09:04:48.368Z,3.63
2023-03-16T09:07:14.745Z,3.60
2023-03-16T09:09:41.200Z,3.80
2023-03-16T09:12:07.622Z,3.60
2023-03-16T09:14:34.015Z,4.22
2023-03-16T09:17:00.475Z,3.70
2023-03-16T09:19:29.147Z,3.88
2023-03-16T09:21:56.993Z,3.97
2023-03-16T09:24:23.397Z,3.80
2023-03-16T09:26:49.877Z,4.07
2023-03-16T09:29:16.271Z,5.15
2023-03-16T09:31:42.671Z,3.95
2023-03-16T09:34:09.086Z,4.20
2023-03-16T09:36:35.501Z,4.30
2023-03-16T09:39:01.891Z,4.47
2023-03-16T09:41:28.301Z,4.45
2023-03-16T09:43:54.715Z,4.72
2023-03-16T09:46:21.164Z,4.05
2023-03-16T09:48:47.592Z,4.90
2023-03-16T09:51:14.034Z,3.95
2023-03-16T09:53:40.480Z,5.07
2023-03-16T09:56:06.874Z,4.88
2023-03-16T09:58:33.270Z,4.53
2023-03-16T10:00:59.770Z,4.90
2023-03-16T10:03:26.383Z,5.03
2023-03-16T10:05:52.815Z,4.85
2023-03-16T10:08:19.233Z,4.10
2023-03-16T10:10:45.650Z,4.43
2023-03-16T10:13:12.065Z,4.47
2023-03-16T10:15:38.464Z,4.88
2023-03-16T10:18:04.927Z,4.28
2023-03-16T10:20:31.364Z,4.22
2023-03-16T10:22:57.791Z,4.00
2023-03-16T10:25:24.165Z,4.60
2023-03-16T10:27:50.535Z,4.10
2023-03-16T10:30:16.957Z,3.95
2023-03-16T10:32:43.751Z,4.05
2023-03-16T10:35:10.179Z,3.97
2023-03-16T10:37:36.614Z,3.90
2023-03-16T10:40:03.033Z,3.88
2023-03-16T10:42:29.481Z,4.03
2023-03-16T10:44:55.943Z,3.60
2023-03-16T10:47:22.407Z,3.53
2023-03-16T10:49:48.906Z,4.20
2023-03-16T10:52:15.358Z,3.97
2023-03-16T10:54:41.824Z,3.85
2023-03-16T10:57:08.293Z,3.60
2023-03-16T10:59:34.759Z,3.75
2023-03-16T11:02:01.147Z,4.03
2023-03-16T11:04:27.748Z,4.00
2023-03-16T11:06:54.321Z,4.32
2023-03-16T11:09:20.768Z,3.80
2023-03-16T11:11:47.169Z,4.43
2023-03-16T11:14:13.772Z,4.22
2023-03-16T11:16:40.233Z,3.42
2023-03-16T11:19:06.690Z,3.40
2023-03-16T11:21:33.098Z,3.60
2023-03-16T11:23:59.523Z,3.30
2023-03-16T11:26:25.983Z,3.35
2023-03-16T11:28:52.432Z,3.55
2023-03-16T11:31:18.828Z,3.15
2023-03-16T11:33:45.279Z,3.33
2023-03-16T11:36:11.754Z,3.08
2023-03-16T11:38:38.169Z,3.38
2023-03-16T11:41:04.587Z,3.58
2023-03-16T11:43:31.007Z,3.30
2023-03-16T11:45:57.442Z,3.22
2023-03-16T11:48:23.892Z,3.13
2023-03-16T11:50:50.275Z,3.00
2023-03-16T11:53:16.669Z,3.70
2023-03-16T11:55:43.106Z,3.00
2023-03-16T11:58:09.502Z,3.20
2023-03-16T12:00:35.910Z,3.03
2023-03-16T12:03:02.365Z,2.70
2023-03-16T12:05:28.945Z,3.08
2023-03-16T12:07:55.473Z,2.90
2023-03-16T12:10:21.908Z,3.00
2023-03-16T12:12:48.319Z,2.80
2023-03-16T12:15:14.706Z,2.63
2023-03-16T12:17:41.094Z,2.83
2023-03-16T12:20:07.504Z,2.50
2023-03-16T12:22:33.902Z,2.78
2023-03-16T12:25:00.313Z,3.03
2023-03-16T12:27:26.764Z,2.83
2023-03-16T12:29:53.195Z,2.55
2023-03-16T12:32:19.587Z,3.00
2023-03-16T12:34:45.954Z,3.05
2023-03-16T12:37:13.408Z,3.08
2023-03-16T12:39:39.805Z,3.08
2023-03-16T12:42:06.185Z,2.95
2023-03-16T12:44:32.645Z,2.90
2023-03-16T12:46:59.040Z,2.70
2023-03-16T12:49:25.470Z,2.80
2023-03-16T12:51:51.858Z,2.70
2023-03-16T12:54:18.307Z,2.38
2023-03-16T12:56:44.711Z,2.40
2023-03-16T12:59:11.109Z,2.92
2023-03-16T13:01:37.590Z,2.80
2023-03-16T13:04:04.059Z,2.70
2023-03-16T13:06:30.758Z,2.67
2023-03-16T13:08:57.151Z,1.90
2023-03-16T13:11:23.598Z,2.30
2023-03-16T13:13:50.052Z,2.55
2023-03-16T13:16:16.516Z,2.53
2023-03-16T13:18:42.959Z,2.72
2023-03-16T13:21:09.360Z,2.58
2023-03-16T13:23:37.573Z,2.92
2023-03-16T13:26:04.132Z,2.75
2023-03-16T13:28:30.560Z,3.13
2023-03-16T13:30:56.993Z,2.58
2023-03-16T13:33:23.410Z,2.40
2023-03-16T13:35:49.874Z,2.10
2023-03-16T13:38:16.364Z,2.42
2023-03-16T13:40:42.928Z,2.78
2023-03-16T13:43:09.320Z,2.20
2023-03-16T13:45:35.772Z,2.92
2023-03-16T13:48:02.187Z,2.58
2023-03-16T13:50:28.834Z,2.88
2023-03-16T13:52:55.354Z,2.90
2023-03-16T13:55:21.713Z,3.25
2023-03-16T13:57:48.144Z,2.63
2023-03-16T14:00:14.562Z,2.42
2023-03-16T14:02:41.024Z,2.92
2023-03-16T14:05:07.517Z,3.20
2023-03-16T14:07:33.962Z,3.00
2023-03-16T14:10:00.369Z,2.83
2023-03-16T14:12:26.797Z,3.10
2023-03-16T14:14:53.194Z,2.10
2023-03-16T14:17:19.625Z,2.33
2023-03-16T14:19:46.173Z,2.65
2023-03-16T14:22:12.768Z,2.38
2023-03-16T14:24:39.172Z,2.50
2023-03-16T14:27:05.565Z,2.58
2023-03-16T14:29:31.957Z,2.83
2023-03-16T14:31:58.398Z,2.30
2023-03-16T14:34:24.811Z,2.40
2023-03-16T14:36:51.270Z,2.40
2023-03-16T14:39:17.685Z,2.47
2023-03-16T14:41:44.058Z,2.55
2023-03-16T14:44:10.492Z,2.38
2023-03-16T14:46:36.987Z,2.40
2023-03-16T14:49:03.429Z,2.50
2023-03-16T14:51:29.935Z,2.35
2023-03-16T14:53:56.347Z,2.20
2023-03-16T14:56:22.718Z,3.03
2023-03-16T14:58:49.155Z,2.30
2023-03-16T15:01:15.665Z,2.45
2023-03-16T15:03:42.119Z,1.85
2023-03-16T15:06:08.515Z,2.00
2023-03-16T15:08:34.899Z,2.30
2023-03-16T15:11:01.292Z,2.65
2023-03-16T15:13:27.675Z,2.00
2023-03-16T15:15:54.096Z,2.63
2023-03-16T15:18:20.643Z,2.28
2023-03-16T15:20:47.033Z,2.35
2023-03-16T15:23:13.548Z,2.35
2023-03-16T15:25:39.941Z,2.22
2023-03-16T15:28:06.370Z,2.20
2023-03-16T15:30:32.777Z,2.10
2023-03-16T15:32:59.192Z,2.15
2023-03-16T15:35:25.577Z,2.25
2023-03-16T15:37:52.023Z,2.22
2023-03-16T15:40:18.457Z,2.83
2023-03-16T15:42:46.865Z,1.90
2023-03-16T15:45:13.509Z,1.95
2023-03-16T15:47:39.923Z,1.90
2023-03-16T15:50:06.291Z,2.15
2023-03-16T15:52:32.692Z,2.00
2023-03-16T15:54:59.139Z,1.90
2023-03-16T15:57:25.584Z,2.28
2023-03-16T15:59:51.972Z,2.50
2023-03-16T16:02:18.429Z,2.53
2023-03-16T16:04:44.830Z,2.45
2023-03-16T16:07:11.234Z,2.35
2023-03-16T16:09:37.782Z,2.10
2023-03-16T16:12:04.169Z,2.47
2023-03-16T16:14:30.631Z,2.10
2023-03-16T16:16:57.092Z,2.05
2023-03-16T16:19:23.557Z,2.20
2023-03-16T16:21:49.993Z,2.08
2023-03-16T16:24:16.447Z,2.15
2023-03-16T16:26:54.348Z,2.10
2023-03-16T16:29:21.834Z,1.95
2023-03-16T16:31:48.288Z,1.70
2023-03-16T16:34:14.733Z,2.72
2023-03-16T16:36:41.109Z,1.90
2023-03-16T16:39:07.492Z,2.13
2023-03-16T16:41:33.871Z,2.25
2023-03-16T16:44:00.294Z,1.90
2023-03-16T16:46:26.833Z,1.85
2023-03-16T16:48:53.286Z,1.80
2023-03-16T16:51:19.709Z,2.03
2023-03-16T16:53:46.148Z,1.90
2023-03-16T16:56:12.826Z,2.60
2023-03-16T16:58:39.313Z,2.20
2023-03-16T17:01:05.727Z,2.42
2023-03-16T17:03:32.152Z,2.13
2023-03-16T17:05:58.562Z,2.40
2023-03-16T17:08:24.956Z,1.90
2023-03-16T17:10:51.561Z,1.65
2023-03-16T17:13:17.983Z,2.05
2023-03-16T17:15:44.386Z,1.90
2023-03-16T17:18:10.781Z,1.90
2023-03-16T17:20:37.194Z,1.88
2023-03-16T17:23:03.619Z,2.00
2023-03-16T17:25:30.325Z,2.10
2023-03-16T17:27:57.002Z,1.92
2023-03-16T17:30:23.473Z,1.98
2023-03-16T17:32:49.927Z,1.77
2023-03-16T17:35:16.420Z,2.20
2023-03-16T17:37:42.914Z,2.20
2023-03-16T17:40:09.374Z,1.98
2023-03-16T17:42:35.769Z,1.77
2023-03-16T17:45:02.209Z,1.55
2023-03-16T17:47:28.635Z,2.40
2023-03-16T17:49:55.070Z,1.90
2023-03-16T17:52:21.731Z,2.00
2023-03-16T17:54:48.199Z,2.50
2023-03-16T17:57:14.625Z,1.98
2023-03-16T17:59:41.140Z,1.73
2023-03-16T18:02:07.573Z,1.80
2023-03-16T18:04:34.032Z,1.88
2023-03-16T18:07:00.483Z,1.67
2023-03-16T18:09:27.625Z,2.22
2023-03-16T18:11:54.189Z,1.98
2023-03-16T18:14:20.722Z,1.90
2023-03-16T18:16:47.132Z,1.92
2023-03-16T18:19:13.844Z,2.05
2023-03-16T18:21:40.213Z,2.05
2023-03-16T18:24:06.712Z,1.83
2023-03-16T18:26:33.216Z,1.90
2023-03-16T18:28:59.598Z,2.20
2023-03-16T18:31:26.270Z,1.50
2023-03-16T18:33:52.814Z,1.70
2023-03-16T18:36:19.268Z,2.00
2023-03-16T18:38:45.724Z,1.77
2023-03-16T18:41:12.150Z,2.22
2023-03-16T18:43:38.600Z,1.77
2023-03-16T18:46:05.014Z,1.77
2023-03-16T18:48:31.479Z,2.05
2023-03-16T18:50:57.902Z,2.08
2023-03-16T18:53:24.293Z,2.20
2023-03-16T18:55:50.747Z,2.22
2023-03-16T18:58:17.175Z,2.67
2023-03-16T19:00:43.801Z,2.50
2023-03-16T19:03:10.244Z,2.10
2023-03-16T19:05:36.663Z,2.20
2023-03-16T19:08:03.133Z,2.40
2023-03-16T19:10:29.544Z,2.10
2023-03-16T19:12:56.031Z,2.50
2023-03-16T19:15:22.442Z,1.80
2023-03-16T19:17:48.902Z,1.80
2023-03-16T19:20:15.304Z,1.90
2023-03-16T19:22:41.762Z,1.70
2023-03-16T19:25:08.155Z,2.33
2023-03-16T19:27:34.591Z,2.47
2023-03-16T19:30:01.033Z,1.90
2023-03-16T19:32:27.489Z,1.98
2023-03-16T19:34:53.969Z,1.92
2023-03-16T19:37:20.669Z,2.20
2023-03-16T19:39:47.104Z,1.90
2023-03-16T19:42:13.855Z,2.10
2023-03-16T19:44:40.290Z,2.22
2023-03-16T19:47:06.759Z,2.17
2023-03-16T19:49:33.189Z,1.92
2023-03-16T19:51:59.641Z,2.17
2023-03-16T19:54:26.423Z,2.38
2023-03-16T19:56:52.908Z,2.22
2023-03-16T19:59:19.301Z,2.05
2023-03-16T20:01:45.685Z,2.28
2023-03-16T20:04:12.173Z,2.20
2023-03-16T20:06:38.634Z,2.50
2023-03-16T20:09:05.090Z,2.40
2023-03-16T20:11:31.533Z,2.85
2023-03-16T20:13:57.940Z,2.67
2023-03-16T20:16:24.437Z,2.30
2023-03-16T20:18:50.902Z,3.05
2023-03-16T20:21:17.348Z,2.60
2023-03-16T20:23:44.025Z,2.38
2023-03-16T20:26:10.427Z,2.42
2023-03-16T20:28:36.861Z,2.50
2023-03-16T20:31:03.434Z,2.58
2023-03-16T20:33:29.828Z,2.80
2023-03-16T20:35:56.265Z,2.90
2023-03-16T20:38:22.693Z,2.55
2023-03-16T20:40:49.144Z,2.30
2023-03-16T20:43:15.594Z,2.80
2023-03-16T20:45:42.068Z,2.38
2023-03-16T20:48:08.522Z,3.10
2023-03-16T20:50:34.962Z,2.70
2023-03-16T20:53:01.429Z,3.40
2023-03-16T20:55:28.189Z,2.70
2023-03-16T20:57:54.885Z,2.50
2023-03-16T21:00:21.691Z,2.72
2023-03-16T21:02:48.132Z,2.70
2023-03-16T21:05:14.636Z,2.63
2023-03-16T21:07:41.081Z,2.53
2023-03-16T21:10:07.496Z,2.85
2023-03-16T21:12:33.938Z,2.53
2023-03-16T21:15:00.391Z,2.22
2023-03-16T21:17:26.937Z,2.97
2023-03-16T21:19:53.410Z,2.38
2023-03-16T21:22:19.897Z,2.42
2023-03-16T21:24:46.364Z,2.78
2023-03-16T21:27:12.934Z,2.40
2023-03-16T21:29:39.313Z,2.45
2023-03-16T21:32:05.745Z,2.22
2023-03-16T21:34:32.207Z,2.53
2023-03-16T21:36:58.642Z,2.17
2023-03-16T21:39:25.527Z,2.30
2023-03-16T21:41:52.025Z,2.22
2023-03-16T21:44:18.571Z,2.40
2023-03-16T21:46:45.093Z,2.17
2023-03-16T21:49:11.557Z,2.60
2023-03-16T21:51:37.971Z,2.40
2023-03-16T21:54:04.471Z,2.03
2023-03-16T21:56:30.901Z,2.15
2023-03-16T21:58:57.308Z,1.90
2023-03-16T22:01:23.847Z,2.33
2023-03-16T22:03:51.504Z,2.10
2023-03-16T22:06:18.036Z,1.90
2023-03-16T22:08:44.467Z,2.05
2023-03-16T22:11:10.925Z,2.10
2023-03-16T22:13:37.361Z,2.30
2023-03-16T22:16:03.881Z,1.98
2023-03-16T22:18:30.417Z,1.92
2023-03-16T22:20:56.895Z,2.00
2023-03-16T22:23:23.389Z,1.77
2023-03-16T22:25:49.828Z,1.88
2023-03-16T22:28:16.235Z,2.33
2023-03-16T22:30:42.945Z,2.05
2023-03-16T22:33:09.406Z,2.08
2023-03-16T22:35:35.806Z,1.77
2023-03-16T22:38:02.213Z,2.15
2023-03-16T22:40:28.609Z,2.38
2023-03-16T22:42:55.027Z,2.20
2023-03-16T22:45:21.500Z,2.28
2023-03-16T22:47:47.940Z,2.55
2023-03-16T22:50:14.357Z,2.95
2023-03-16T22:52:40.740Z,2.30
2023-03-16T22:55:07.139Z,2.60
2023-03-16T22:57:33.536Z,2.20
2023-03-16T22:59:59.966Z,2.28
2023-03-16T23:02:26.417Z,2.22
2023-03-16T23:04:53.035Z,2.17
2023-03-16T23:07:19.474Z,2.13
2023-03-16T23:09:45.912Z,1.95
2023-03-16T23:12:12.351Z,2.05
2023-03-16T23:14:38.812Z,2.42
2023-03-16T23:17:05.194Z,2.33
2023-03-16T23:19:31.574Z,2.20
2023-03-16T23:21:57.961Z,2.03
2023-03-16T23:24:24.398Z,2.30
2023-03-16T23:26:50.853Z,2.08
2023-03-16T23:29:17.319Z,2.13
2023-03-16T23:31:43.782Z,2.13
2023-03-16T23:34:10.178Z,2.25
2023-03-16T23:36:36.544Z,2.25
2023-03-16T23:39:03.063Z,2.13
2023-03-16T23:41:29.487Z,2.00
2023-03-16T23:43:55.921Z,2.33
2023-03-16T23:46:22.325Z,2.47
2023-03-16T23:48:48.794Z,2.80
2023-03-16T23:51:15.254Z,2.55
2023-03-16T23:53:41.642Z,2.17
2023-03-16T23:56:08.038Z,2.08
2023-03-16T23:58:34.458Z,2.08
